Time;durP1;ratioP1;P1;durP2;ratioP2;P2;SDS_P1;SDS_P2;PMS_P1;PMS_P2;Temp;Humidity;BMP_temperature;BMP_pressure;BME280_temperature;BME280_humidity;BME280_pressure;Samples;Min_cycle;Max_cycle;Signal;HPM_P1;HPM_P2
2023/04/16 00:05:04;;;;;;;42.03;25.17;;;8.00;99.90;;;;;;2610451;54;20157;-70
2023/04/16 00:10:55;;;;;;;30.20;22.80;;;8.00;99.90;;;;;;2610270;54;20383;-69
2023/04/16 00:16:42;;;;;;;35.30;23.23;;;8.10;99.90;;;;;;2610364;54;20411;-69
2023/04/16 00:22:30;;;;;;;38.73;20.87;;;8.10;99.90;;;;;;2610351;54;20134;-68
2023/04/16 00:28:18;;;;;;;31.03;20.43;;;8.10;99.90;;;;;;2611946;54;20130;-70
2023/04/16 00:38:11;;;;;;;33.40;20.07;;;8.10;99.90;;;;;;2610433;54;20977;-68
2023/04/16 00:43:59;;;;;;;31.33;21.57;;;8.10;99.90;;;;;;2609568;54;20388;-69
2023/04/16 00:49:47;;;;;;;31.90;20.70;;;8.10;99.90;;;;;;2610036;54;20190;-69
2023/04/16 00:55:35;;;;;;;38.90;22.50;;;8.10;99.90;;;;;;2610236;54;20390;-68
2023/04/16 01:01:23;;;;;;;24.57;17.50;;;8.10;99.90;;;;;;2611709;54;20378;-75
2023/04/16 01:07:11;;;;;;;31.27;18.60;;;8.10;99.90;;;;;;2609714;46;20137;-74
2023/04/16 01:12:58;;;;;;;33.23;20.53;;;8.10;99.90;;;;;;2610726;54;20123;-74
2023/04/16 01:18:46;;;;;;;30.43;20.67;;;8.10;99.90;;;;;;2610077;54;20150;-74
2023/04/16 01:24:35;;;;;;;30.63;19.10;;;8.10;99.90;;;;;;2609454;54;20836;-74
2023/04/16 01:30:22;;;;;;;33.93;22.70;;;8.10;99.90;;;;;;2610394;54;20387;-74
2023/04/16 01:33:38;;;;;;;36.43;24.50;;;8.20;99.90;;;;;;2609327;54;20423;-74
2023/04/16 01:36:04;;;;;;;38.23;24.13;;;8.20;99.90;;;;;;2609043;54;20273;-74
2023/04/16 01:41:52;;;;;;;36.67;21.90;;;8.20;99.90;;;;;;2610036;54;20131;-74
2023/04/16 01:47:39;;;;;;;44.10;23.23;;;8.20;99.90;;;;;;2609843;54;20148;-74
2023/04/16 01:53:27;;;;;;;40.17;24.63;;;8.20;99.90;;;;;;2610265;54;20162;-74
2023/04/16 01:59:15;;;;;;;41.20;25.67;;;8.20;99.90;;;;;;2610553;54;20613;-74
2023/04/16 02:05:03;;;;;;;44.63;27.43;;;8.30;99.90;;;;;;2610447;54;20123;-74
2023/04/16 02:10:50;;;;;;;41.33;25.53;;;8.30;99.90;;;;;;2610098;54;20963;-74
2023/04/16 02:16:38;;;;;;;33.20;23.40;;;8.30;99.90;;;;;;2610827;54;20143;-74
2023/04/16 02:22:26;;;;;;;39.47;26.10;;;8.30;99.90;;;;;;2611655;54;20150;-74
2023/04/16 02:28:15;;;;;;;37.00;24.60;;;8.30;99.90;;;;;;2608311;54;20146;-68
2023/04/16 02:38:09;;;;;;;42.67;25.57;;;8.50;99.90;;;;;;2610084;54;20412;-67
2023/04/16 02:43:57;;;;;;;41.57;24.03;;;8.40;99.90;;;;;;2610363;54;20526;-68
2023/04/16 02:49:44;;;;;;;34.47;23.90;;;8.50;99.90;;;;;;2610851;54;20676;-68
2023/04/16 02:55:32;;;;;;;36.13;24.10;;;8.50;99.90;;;;;;2610987;39;20936;-68
2023/04/16 03:01:20;;;;;;;36.67;23.00;;;8.50;99.90;;;;;;2611033;54;20123;-75
2023/04/16 03:07:08;;;;;;;38.40;24.53;;;8.50;99.90;;;;;;2611082;54;20126;-74
2023/04/16 03:12:55;;;;;;;45.80;25.80;;;8.50;99.90;;;;;;2610118;54;20422;-75
2023/04/16 03:18:43;;;;;;;43.87;26.33;;;8.50;99.90;;;;;;2611402;54;20126;-74
2023/04/16 03:24:31;;;;;;;42.00;27.70;;;8.50;99.90;;;;;;2610099;54;20130;-73
2023/04/16 03:30:18;;;;;;;40.20;26.13;;;8.50;99.90;;;;;;2609313;54;20231;-74
2023/04/16 03:33:38;;;;;;;42.43;28.30;;;8.50;99.90;;;;;;2610437;54;20408;-75
2023/04/16 03:36:04;;;;;;;41.30;28.33;;;8.50;99.90;;;;;;2610536;39;20540;-74
2023/04/16 03:41:52;;;;;;;35.70;26.17;;;8.60;99.90;;;;;;2611107;54;20371;-74
2023/04/16 03:47:40;;;;;;;42.73;25.10;;;8.60;99.90;;;;;;2610415;54;20630;-74
2023/04/16 03:53:28;;;;;;;45.60;25.57;;;8.60;99.90;;;;;;2609334;54;20684;-74
2023/04/16 03:59:15;;;;;;;40.70;26.10;;;8.60;99.90;;;;;;2610290;39;20550;-74
2023/04/16 04:05:03;;;;;;;36.43;24.07;;;8.60;99.90;;;;;;2610471;54;20130;-74
2023/04/16 04:10:51;;;;;;;42.13;27.90;;;8.60;99.90;;;;;;2609550;54;20125;-76
2023/04/16 04:16:39;;;;;;;39.43;26.47;;;8.60;99.90;;;;;;2610704;54;20779;-75
2023/04/16 04:22:26;;;;;;;36.70;24.70;;;8.60;99.90;;;;;;2610791;54;20122;-74
2023/04/16 04:28:14;;;;;;;42.47;27.20;;;8.60;99.90;;;;;;2609700;54;20118;-74
2023/04/16 04:38:11;;;;;;;45.57;26.87;;;8.60;99.90;;;;;;2610193;54;21301;-74
2023/04/16 04:43:58;;;;;;;46.97;28.83;;;8.70;99.90;;;;;;2610312;54;20374;-74
2023/04/16 04:49:46;;;;;;;40.50;26.00;;;8.70;99.90;;;;;;2610623;54;20147;-74
2023/04/16 04:55:34;;;;;;;43.73;29.07;;;8.80;99.90;;;;;;2610396;54;20142;-75
2023/04/16 05:01:22;;;;;;;44.03;25.10;;;8.80;99.90;;;;;;2611635;54;20126;-74
2023/04/16 05:07:09;;;;;;;40.63;25.57;;;8.90;99.90;;;;;;2611598;54;20110;-74
2023/04/16 05:12:57;;;;;;;39.10;25.73;;;8.80;99.90;;;;;;2609781;54;20122;-74
2023/04/16 05:18:45;;;;;;;39.57;25.53;;;8.90;99.90;;;;;;2610135;54;20657;-75
2023/04/16 05:24:32;;;;;;;44.00;26.53;;;8.90;99.90;;;;;;2610517;54;20130;-74
2023/04/16 05:30:20;;;;;;;44.43;29.37;;;8.90;99.90;;;;;;2610876;54;20681;-73
2023/04/16 05:33:38;;;;;;;47.03;27.30;;;8.90;99.90;;;;;;2609992;54;20419;-74
2023/04/16 05:36:04;;;;;;;40.13;27.63;;;8.90;99.90;;;;;;2610112;54;20177;-75
2023/04/16 05:41:52;;;;;;;41.53;28.00;;;9.00;99.90;;;;;;2609644;54;20231;-74
2023/04/16 05:47:40;;;;;;;42.17;25.77;;;8.90;99.90;;;;;;2610528;54;20243;-75
2023/04/16 05:53:28;;;;;;;38.00;26.10;;;9.00;99.90;;;;;;2610791;54;20122;-73
2023/04/16 05:59:16;;;;;;;42.67;26.10;;;9.00;99.90;;;;;;2610962;54;20859;-74
2023/04/16 06:05:04;;;;;;;43.10;27.57;;;9.00;99.90;;;;;;2615069;54;20138;-74
2023/04/16 06:10:52;;;;;;;40.17;25.23;;;9.00;99.90;;;;;;2613628;54;20932;-74
2023/04/16 06:16:40;;;;;;;39.87;26.23;;;9.00;99.90;;;;;;2615308;39;20481;-74
2023/04/16 06:22:28;;;;;;;42.53;28.17;;;9.00;99.90;;;;;;2614732;54;20151;-74
2023/04/16 06:28:15;;;;;;;38.60;27.63;;;9.00;99.90;;;;;;2614275;54;20153;-74
2023/04/16 06:38:09;;;;;;;42.27;28.53;;;9.10;99.90;;;;;;2612561;54;20407;-74
2023/04/16 06:43:56;;;;;;;42.00;28.50;;;9.20;99.90;;;;;;2615252;54;20402;-75
2023/04/16 06:49:44;;;;;;;38.30;26.77;;;9.20;99.90;;;;;;2614682;54;20131;-74
2023/04/16 06:55:32;;;;;;;41.07;28.63;;;9.30;99.90;;;;;;2614777;54;20158;-75
2023/04/16 06:58:35;;;;;;;45.80;28.40;;;9.30;99.90;;;;;;2614329;54;20427;-75
2023/04/16 07:01:01;;;;;;;35.27;26.07;;;9.40;99.90;;;;;;2614886;39;20841;-75
2023/04/16 07:06:48;;;;;;;35.60;25.67;;;9.50;99.90;;;;;;2614435;54;20395;-75
2023/04/16 07:12:36;;;;;;;39.00;26.60;;;9.50;99.90;;;;;;2612129;46;20168;-75
2023/04/16 07:18:24;;;;;;;33.27;26.63;;;9.80;99.90;;;;;;2612968;54;20130;-76
2023/04/16 07:24:12;;;;;;;35.57;27.40;;;9.90;99.90;;;;;;2612130;46;20162;-73
2023/04/16 07:30:00;;;;;;;34.57;26.13;;;10.00;99.90;;;;;;2612416;39;20711;-74
2023/04/16 07:35:47;;;;;;;40.77;27.40;;;9.90;99.90;;;;;;2614281;54;20174;-75
2023/04/16 07:41:36;;;;;;;32.97;26.90;;;9.80;99.90;;;;;;2614048;54;20143;-74
2023/04/16 07:47:25;;;;;;;34.50;25.93;;;9.80;99.90;;;;;;2614002;54;20456;-74
2023/04/16 07:53:12;;;;;;;41.63;24.80;;;9.80;99.90;;;;;;2614682;54;20422;-75
2023/04/16 07:59:00;;;;;;;35.33;27.60;;;9.90;99.90;;;;;;2612904;54;20146;-75
2023/04/16 08:04:48;;;;;;;30.97;24.63;;;10.00;99.90;;;;;;2611539;54;20134;-74
2023/04/16 08:10:36;;;;;;;33.00;25.67;;;10.20;99.90;;;;;;2611104;54;20125;-75
2023/04/16 08:16:23;;;;;;;39.20;28.50;;;10.30;99.90;;;;;;2612512;54;20121;-74
2023/04/16 08:22:12;;;;;;;34.23;25.80;;;10.50;99.90;;;;;;2613644;54;20174;-73
2023/04/16 08:27:59;;;;;;;29.63;24.03;;;10.70;99.90;;;;;;2613976;54;20362;-76
2023/04/16 08:40:33;;;;;;;31.80;24.73;;;10.60;99.90;;;;;;2614232;54;20387;-74
2023/04/16 08:46:25;;;;;;;29.20;26.07;;;10.60;99.90;;;;;;2609897;54;20371;-75
2023/04/16 08:52:17;;;;;;;32.20;25.20;;;10.90;99.90;;;;;;2610726;54;20973;-75
2023/04/16 08:58:13;;;;;;;28.70;24.40;;;10.70;99.90;;;;;;2613152;54;20475;-74
2023/04/16 09:04:01;;;;;;;27.20;23.73;;;10.80;99.90;;;;;;2613830;54;20487;-75
2023/04/16 09:09:51;;;;;;;25.07;22.20;;;11.00;99.90;;;;;;2610072;54;20387;-75
2023/04/16 09:15:40;;;;;;;30.70;24.10;;;11.10;99.90;;;;;;2610113;54;20375;-75
2023/04/16 09:21:28;;;;;;;27.40;24.53;;;11.00;99.90;;;;;;2609831;54;20423;-75
2023/04/16 09:27:16;;;;;;;32.37;25.27;;;11.10;99.90;;;;;;2613927;54;20268;-74
2023/04/16 09:33:23;;;;;;;28.57;25.47;;;11.10;99.90;;;;;;2613071;54;20438;-75
2023/04/16 09:39:18;;;;;;;25.93;22.87;;;11.10;99.90;;;;;;2607199;39;20824;-74
2023/04/16 09:45:30;;;;;;;28.07;22.73;;;11.30;99.90;;;;;;2612002;54;20448;-74
2023/04/16 09:51:17;;;;;;;26.73;23.83;;;11.60;99.90;;;;;;2608426;54;20438;-74
2023/04/16 09:57:05;;;;;;;26.80;23.80;;;11.80;99.90;;;;;;2605453;54;21056;-74
2023/04/16 10:15:56;;;;;;;27.67;24.77;;;12.20;99.90;;;;;;2610568;54;20390;-75
2023/04/16 10:21:44;;;;;;;28.57;25.47;;;12.50;99.90;;;;;;2613272;54;20383;-74
2023/04/16 10:27:32;;;;;;;27.27;24.57;;;12.60;99.90;;;;;;2613500;54;20495;-75
2023/04/16 10:33:25;;;;;;;24.60;22.00;;;12.70;99.90;;;;;;2613811;54;20427;-75
2023/04/16 10:39:20;;;;;;;25.23;22.50;;;12.90;99.90;;;;;;2613290;54;20438;-74
2023/04/16 10:45:10;;;;;;;23.63;21.53;;;13.80;99.90;;;;;;2613330;54;21134;-75
2023/04/16 10:50:58;;;;;;;26.63;24.20;;;14.40;91.50;;;;;;2612403;54;20363;-73
2023/04/16 10:56:46;;;;;;;24.80;22.63;;;13.40;97.00;;;;;;2612635;54;21051;-76
2023/04/16 11:02:34;;;;;;;24.33;22.17;;;14.20;92.10;;;;;;2614053;39;20519;-75
2023/04/16 11:08:22;;;;;;;25.00;21.93;;;14.70;66.50;;;;;;2610160;54;20386;-76
2023/04/16 11:14:11;;;;;;;24.20;21.90;;;14.40;76.50;;;;;;2611670;54;20335;-74
2023/04/16 11:19:59;;;;;;;25.73;23.27;;;14.10;78.00;;;;;;2613107;54;20419;-75
2023/04/16 11:25:47;;;;;;;25.90;23.57;;;14.30;84.30;;;;;;2613423;54;20371;-75
2023/04/16 11:31:35;;;;;;;26.77;24.37;;;13.90;85.20;;;;;;2610905;54;20130;-75
2023/04/16 11:37:36;;;;;;;27.60;25.10;;;13.50;93.70;;;;;;2611626;54;20154;-75
2023/04/16 11:43:25;;;;;;;26.83;24.37;;;13.30;94.80;;;;;;2613135;54;20464;-76
2023/04/16 11:49:16;;;;;;;28.73;25.77;;;13.30;93.40;;;;;;2613088;54;20420;-75
2023/04/16 11:55:04;;;;;;;26.03;23.47;;;13.20;97.10;;;;;;2613222;39;20788;-75
2023/04/16 12:00:55;;;;;;;27.27;24.43;;;13.50;94.40;;;;;;2613945;39;20754;-75
2023/04/16 12:07:12;;;;;;;26.47;24.00;;;13.30;95.20;;;;;;2611901;54;20403;-75
2023/04/16 12:13:13;;;;;;;26.83;24.17;;;13.20;95.50;;;;;;2613714;39;20788;-75
2023/04/16 12:19:02;;;;;;;27.53;24.63;;;13.40;95.00;;;;;;2613583;54;20367;-76
2023/04/16 12:24:55;;;;;;;26.27;23.90;;;13.50;84.70;;;;;;2614661;39;20746;-75
2023/04/16 12:30:50;;;;;;;33.53;24.33;;;13.90;87.60;;;;;;2613309;46;20423;-74
2023/04/16 12:33:36;;;;;;;26.33;23.93;;;13.70;82.30;;;;;;2612171;54;20415;-75
2023/04/16 12:42:41;;;;;;;26.50;24.10;;;13.80;85.10;;;;;;2612510;54;20371;-76
2023/04/16 12:48:28;;;;;;;24.53;22.33;;;14.00;77.00;;;;;;2612559;39;20530;-75
2023/04/16 12:54:16;;;;;;;24.47;22.17;;;14.40;71.00;;;;;;2612673;46;20310;-75
2023/04/16 13:00:05;;;;;;;23.83;21.77;;;14.70;64.50;;;;;;2613041;54;20665;-75
2023/04/16 13:05:53;;;;;;;23.73;20.83;;;14.60;52.50;;;;;;2613252;46;20366;-75
2023/04/16 13:11:41;;;;;;;22.17;20.17;;;14.90;55.40;;;;;;2613730;54;20127;-75
2023/04/16 13:17:29;;;;;;;23.87;21.70;;;14.70;60.80;;;;;;2613159;54;20142;-74
2023/04/16 13:23:16;;;;;;;24.60;22.17;;;14.20;67.90;;;;;;2611848;54;20159;-76
2023/04/16 13:29:04;;;;;;;24.37;22.17;;;14.50;70.50;;;;;;2612627;54;20138;-74
2023/04/16 13:38:14;;;;;;;24.37;22.00;;;15.10;61.20;;;;;;2612602;46;20386;-74
2023/04/16 13:44:02;;;;;;;25.37;22.97;;;14.90;64.50;;;;;;2613240;54;20500;-75
2023/04/16 13:49:50;;;;;;;28.77;26.17;;;14.60;75.60;;;;;;2612826;54;20162;-75
2023/04/16 13:55:37;;;;;;;27.43;24.73;;;14.10;81.90;;;;;;2613191;54;20230;-75
2023/04/16 14:01:25;;;;;;;27.87;25.30;;;13.70;89.40;;;;;;2613412;39;20564;-75
2023/04/16 14:07:13;;;;;;;26.60;23.80;;;13.80;85.90;;;;;;2612976;54;20242;-74
2023/04/16 14:13:01;;;;;;;26.10;23.80;;;13.90;78.90;;;;;;2612728;54;20984;-76
2023/04/16 14:18:50;;;;;;;25.97;23.47;;;13.80;77.40;;;;;;2613057;46;20150;-75
2023/04/16 14:24:38;;;;;;;26.80;24.27;;;14.00;77.00;;;;;;2613659;54;20389;-75
2023/04/16 14:30:26;;;;;;;26.10;23.40;;;14.10;77.90;;;;;;2613203;54;20122;-76
2023/04/16 14:33:39;;;;;;;24.70;22.60;;;14.30;73.20;;;;;;2613306;54;21246;-75
2023/04/16 14:36:05;;;;;;;26.40;23.80;;;14.30;70.00;;;;;;2613177;54;20454;-75
2023/04/16 14:41:52;;;;;;;24.33;22.20;;;14.50;73.70;;;;;;2612741;54;20374;-75
2023/04/16 14:47:44;;;;;;;25.80;23.40;;;14.50;61.70;;;;;;2613221;54;20161;-74
2023/04/16 14:53:33;;;;;;;23.27;21.17;;;14.60;57.70;;;;;;2612768;46;20491;-75
2023/04/16 14:59:20;;;;;;;22.57;20.50;;;15.10;49.90;;;;;;2613439;54;20368;-68
2023/04/16 15:05:09;;;;;;;20.70;19.10;;;15.30;44.70;;;;;;2613050;54;20158;-68
2023/04/16 15:10:57;;;;;;;23.20;21.30;;;14.80;43.90;;;;;;2612900;54;20407;-74
2023/04/16 15:16:46;;;;;;;20.93;19.23;;;15.10;47.40;;;;;;2612899;54;20119;-76
2023/04/16 15:22:33;;;;;;;20.70;18.90;;;15.40;41.20;;;;;;2613546;54;20411;-75
2023/04/16 15:28:21;;;;;;;21.60;19.80;;;15.20;40.20;;;;;;2613061;54;20366;-75
2023/04/16 15:38:11;;;;;;;22.23;20.33;;;15.20;40.40;;;;;;2613584;39;20772;-75
2023/04/16 15:43:59;;;;;;;21.87;19.83;;;15.10;41.10;;;;;;2613356;54;21291;-75
2023/04/16 15:49:46;;;;;;;21.00;19.10;;;14.70;42.70;;;;;;2610998;54;20133;-75
2023/04/16 15:55:35;;;;;;;21.23;19.17;;;15.20;37.90;;;;;;2612880;54;20186;-76
2023/04/16 16:01:22;;;;;;;21.40;19.33;;;14.80;36.30;;;;;;2612190;31;20612;-75
2023/04/16 16:07:10;;;;;;;19.57;17.87;;;15.40;35.20;;;;;;2611045;54;20145;-74
2023/04/16 16:13:04;;;;;;;20.17;18.37;;;15.60;29.00;;;;;;2613264;39;20760;-75
2023/04/16 16:18:51;;;;;;;19.47;17.87;;;15.00;28.20;;;;;;2612504;54;20414;-74
2023/04/16 16:24:39;;;;;;;19.77;18.07;;;14.70;34.60;;;;;;2613224;54;20158;-75
2023/04/16 16:30:27;;;;;;;19.57;17.97;;;14.60;37.90;;;;;;2613284;54;21111;-75
2023/04/16 16:33:39;;;;;;;19.53;17.90;;;14.60;39.50;;;;;;2612637;54;20516;-75
2023/04/16 16:36:09;;;;;;;19.43;17.80;;;14.70;40.60;;;;;;2614111;31;20579;-75
2023/04/16 16:41:57;;;;;;;21.50;19.80;;;14.70;38.70;;;;;;2613459;54;20359;-75
2023/04/16 16:47:44;;;;;;;22.67;20.77;;;14.50;42.50;;;;;;2613414;54;20167;-75
2023/04/16 16:53:32;;;;;;;21.00;19.13;;;14.30;46.30;;;;;;2612381;54;20584;-75
2023/04/16 16:59:20;;;;;;;19.90;18.17;;;14.10;48.40;;;;;;2612871;54;20126;-74
2023/04/16 17:05:08;;;;;;;21.70;19.70;;;14.00;51.10;;;;;;2611605;54;20154;-76
2023/04/16 17:10:56;;;;;;;21.03;18.93;;;14.00;57.60;;;;;;2611573;54;20527;-75
2023/04/16 17:16:45;;;;;;;23.23;21.23;;;13.80;56.50;;;;;;2613440;39;20518;-75
2023/04/16 17:22:33;;;;;;;21.33;19.50;;;13.60;56.70;;;;;;2611946;54;20480;-75
2023/04/16 17:28:20;;;;;;;21.30;19.30;;;13.50;64.80;;;;;;2611255;54;20130;-74
2023/04/16 17:31:06;;;;;;;23.47;19.57;;;13.50;71.90;;;;;;2611935;31;20831;-75
2023/04/16 17:33:31;;;;;;;24.40;22.00;;;13.40;91.50;;;;;;2612089;54;20154;-75
2023/04/16 17:39:19;;;;;;;31.90;23.70;;;13.20;99.90;;;;;;2611968;54;20149;-75
2023/04/16 17:45:08;;;;;;;32.57;29.17;;;13.00;99.90;;;;;;2613597;54;20367;-76
2023/04/16 17:50:56;;;;;;;26.30;20.47;;;12.80;99.90;;;;;;2612996;54;20488;-75
2023/04/16 17:56:44;;;;;;;35.63;24.83;;;12.70;99.90;;;;;;2611979;54;20189;-76
2023/04/16 18:02:31;;;;;;;30.97;24.20;;;12.60;99.90;;;;;;2612614;54;20371;-74
2023/04/16 18:08:19;;;;;;;26.80;22.47;;;12.50;99.90;;;;;;2612420;39;20538;-76
2023/04/16 18:14:08;;;;;;;36.93;23.57;;;12.40;99.90;;;;;;2612142;54;20158;-76
2023/04/16 18:19:56;;;;;;;31.60;23.77;;;12.30;99.90;;;;;;2612667;54;20391;-75
2023/04/16 18:25:44;;;;;;;30.27;23.47;;;12.20;99.90;;;;;;2612081;54;20134;-76
2023/04/16 18:31:32;;;;;;;36.87;24.60;;;12.10;99.90;;;;;;2612610;54;20129;-75
2023/04/16 18:37:19;;;;;;;33.17;23.20;;;12.10;99.90;;;;;;2611729;39;20263;-74
2023/04/16 18:43:07;;;;;;;25.57;22.90;;;12.00;99.90;;;;;;2613724;54;20126;-75
2023/04/16 18:48:55;;;;;;;26.40;23.17;;;12.00;99.90;;;;;;2612581;54;20150;-75
2023/04/16 18:54:43;;;;;;;30.80;23.80;;;12.00;99.90;;;;;;2613476;54;20118;-75
2023/04/16 19:00:31;;;;;;;26.43;20.87;;;11.90;99.90;;;;;;2614090;54;20134;-75
2023/04/16 19:06:18;;;;;;;30.80;23.03;;;11.80;99.90;;;;;;2610973;54;20672;-74
2023/04/16 19:12:06;;;;;;;30.63;22.67;;;11.90;99.90;;;;;;2612365;54;20122;-75
2023/04/16 19:17:54;;;;;;;42.53;24.23;;;11.90;99.90;;;;;;2613803;54;20143;-76
2023/04/16 19:23:42;;;;;;;35.77;20.20;;;11.90;99.90;;;;;;2614136;54;20657;-75
2023/04/16 19:29:33;;;;;;;26.17;18.17;;;11.80;99.90;;;;;;2613247;39;20530;-75
2023/04/16 19:38:43;;;;;;;22.00;18.83;;;11.70;99.90;;;;;;2612956;54;20368;-75
2023/04/16 19:44:31;;;;;;;23.70;21.10;;;11.70;99.90;;;;;;2613533;54;20114;-75
2023/04/16 19:50:19;;;;;;;23.20;19.90;;;11.70;99.90;;;;;;2614501;54;20399;-76
2023/04/16 19:56:06;;;;;;;25.97;19.20;;;11.70;99.90;;;;;;2614390;54;20367;-76
2023/04/16 20:01:54;;;;;;;25.73;19.40;;;11.60;99.90;;;;;;2612943;54;20147;-75
2023/04/16 20:07:42;;;;;;;22.03;18.13;;;11.60;99.90;;;;;;2612791;54;20135;-74
2023/04/16 20:13:30;;;;;;;21.90;17.60;;;11.50;99.90;;;;;;2611989;39;20317;-75
2023/04/16 20:19:18;;;;;;;19.30;16.73;;;11.50;99.90;;;;;;2614296;54;20157;-74
2023/04/16 20:25:07;;;;;;;19.33;16.47;;;11.40;99.90;;;;;;2609562;31;20952;-75
2023/04/16 20:30:55;;;;;;;19.03;16.60;;;11.30;99.90;;;;;;2611644;39;20819;-76
2023/04/16 20:34:09;;;;;;;21.10;18.00;;;11.30;99.90;;;;;;2612250;54;20419;-75
2023/04/16 20:36:34;;;;;;;20.23;17.40;;;11.30;99.90;;;;;;2613226;54;20155;-74
2023/04/16 20:42:24;;;;;;;25.80;19.37;;;11.30;99.90;;;;;;2613021;54;20234;-74
2023/04/16 20:48:12;;;;;;;27.73;20.10;;;11.20;99.90;;;;;;2612928;54;20465;-75
2023/04/16 20:54:01;;;;;;;30.93;22.93;;;11.10;99.90;;;;;;2612566;54;20151;-75
2023/04/16 20:59:49;;;;;;;26.07;20.60;;;11.00;99.90;;;;;;2611884;54;20925;-74
2023/04/16 21:05:36;;;;;;;30.67;22.63;;;11.00;99.90;;;;;;2613872;39;20550;-76
2023/04/16 21:11:25;;;;;;;34.30;23.33;;;10.90;99.90;;;;;;2613345;54;20162;-74
2023/04/16 21:17:12;;;;;;;28.03;23.70;;;10.90;99.90;;;;;;2611900;54;20394;-74
2023/04/16 21:23:01;;;;;;;40.03;25.83;;;10.90;99.90;;;;;;2613564;54;20127;-74
2023/04/16 21:28:49;;;;;;;36.87;26.60;;;10.80;99.90;;;;;;2613414;54;20391;-73
2023/04/16 21:38:36;;;;;;;37.20;26.00;;;10.60;99.90;;;;;;2612659;54;20371;-74
2023/04/16 21:44:24;;;;;;;43.53;30.50;;;10.60;99.90;;;;;;2613526;54;20467;-74
2023/04/16 21:50:12;;;;;;;42.67;29.00;;;10.60;99.90;;;;;;2613804;54;20154;-74
2023/04/16 21:55:59;;;;;;;42.87;29.23;;;10.70;99.90;;;;;;2611440;54;20126;-74
2023/04/16 22:01:47;;;;;;;44.00;30.37;;;10.60;99.90;;;;;;2612433;54;20135;-67
2023/04/16 22:07:35;;;;;;;45.43;29.50;;;10.60;99.90;;;;;;2612834;54;20162;-67
2023/04/16 22:13:24;;;;;;;44.33;29.73;;;10.60;99.90;;;;;;2613240;54;20362;-68
2023/04/16 22:19:12;;;;;;;40.97;30.20;;;10.60;99.90;;;;;;2613445;54;20371;-67
2023/04/16 22:25:00;;;;;;;44.97;32.57;;;10.60;99.90;;;;;;2613948;54;20375;-68
2023/04/16 22:30:48;;;;;;;41.47;30.47;;;10.60;99.90;;;;;;2612777;54;20188;-68
2023/04/16 22:34:08;;;;;;;43.10;31.60;;;10.50;99.90;;;;;;2613869;54;20396;-69
2023/04/16 22:36:34;;;;;;;43.13;30.33;;;10.50;99.90;;;;;;2613310;54;20893;-68
2023/04/16 22:42:23;;;;;;;42.50;31.57;;;10.50;99.90;;;;;;2612348;54;20143;-68
2023/04/16 22:48:10;;;;;;;45.80;32.43;;;10.50;99.90;;;;;;2613855;54;20435;-67
2023/04/16 22:53:58;;;;;;;44.37;31.13;;;10.50;99.90;;;;;;2613534;46;20430;-68
2023/04/16 22:59:46;;;;;;;40.30;31.70;;;10.50;99.90;;;;;;2613488;54;20147;-68
2023/04/16 23:05:34;;;;;;;45.00;32.23;;;10.40;99.90;;;;;;2613342;54;20130;-67
2023/04/16 23:11:22;;;;;;;51.00;30.40;;;10.40;99.90;;;;;;2613911;54;20526;-67
2023/04/16 23:17:11;;;;;;;45.17;32.53;;;10.40;99.90;;;;;;2611894;54;20126;-67
2023/04/16 23:22:59;;;;;;;44.23;32.00;;;10.40;99.90;;;;;;2612915;54;20400;-66
2023/04/16 23:28:47;;;;;;;42.33;30.90;;;10.40;99.90;;;;;;2610622;54;20139;-67
2023/04/16 23:38:40;;;;;;;43.60;32.17;;;10.40;99.90;;;;;;2612653;31;20830;-67
2023/04/16 23:44:28;;;;;;;41.13;30.70;;;10.40;99.90;;;;;;2612127;54;20998;-67
2023/04/16 23:50:16;;;;;;;38.70;28.83;;;10.40;99.90;;;;;;2613133;54;20131;-68
2023/04/16 23:56:04;;;;;;;44.20;30.17;;;10.40;99.90;;;;;;2613973;54;20154;-67
